createdAt,value
2022-11-24T00:01:37.941Z,2.71
2022-11-24T00:04:07.959Z,2.67
2022-11-24T00:06:37.624Z,2.64
2022-11-24T00:09:06.785Z,2.61
2022-11-24T00:11:37.205Z,2.58
2022-11-24T00:14:07.070Z,2.56
2022-11-24T00:16:39.077Z,2.03
2022-11-24T00:19:09.695Z,2.49
2022-11-24T00:21:41.404Z,2.40
2022-11-24T00:24:10.760Z,2.35
2022-11-24T00:26:39.595Z,2.38
2022-11-24T00:29:10.609Z,2.39
2022-11-24T00:31:43.225Z,2.34
2022-11-24T00:34:14.504Z,2.28
2022-11-24T00:36:43.828Z,2.24
2022-11-24T00:39:14.670Z,2.19
2022-11-24T00:41:44.138Z,2.17
2022-11-24T00:44:12.798Z,2.21
2022-11-24T00:46:42.953Z,2.26
2022-11-24T00:49:11.813Z,2.24
2022-11-24T00:51:40.458Z,2.23
2022-11-24T00:54:09.095Z,2.31
2022-11-24T00:56:37.685Z,2.37
2022-11-24T00:59:06.438Z,2.36
2022-11-24T01:01:35.112Z,2.39
2022-11-24T01:04:05.936Z,2.43
2022-11-24T01:06:35.767Z,2.47
2022-11-24T01:09:04.908Z,2.47
2022-11-24T01:11:55.367Z,2.46
2022-11-24T01:14:26.131Z,2.52
2022-11-24T01:16:55.055Z,2.55
2022-11-24T01:19:25.452Z,2.57
2022-11-24T01:21:54.410Z,2.55
2022-11-24T01:24:23.247Z,2.51
2022-11-24T01:26:51.888Z,2.47
2022-11-24T01:29:20.523Z,2.52
2022-11-24T01:31:49.166Z,2.49
2022-11-24T01:34:17.732Z,2.51
2022-11-24T01:36:48.883Z,2.50
2022-11-24T01:39:17.604Z,2.50
2022-11-24T01:41:46.272Z,2.48
2022-11-24T01:44:27.111Z,2.50
2022-11-24T01:47:01.316Z,2.49
2022-11-24T01:49:39.064Z,2.43
2022-11-24T01:52:13.170Z,2.40
2022-11-24T01:54:46.434Z,2.40
2022-11-24T01:57:22.923Z,2.40
2022-11-24T01:59:54.672Z,2.41
2022-11-24T02:02:29.531Z,2.47
2022-11-24T02:05:01.101Z,2.52
2022-11-24T02:07:31.836Z,2.51
2022-11-24T02:10:04.767Z,2.54
2022-11-24T02:12:35.785Z,2.57
2022-11-24T02:15:04.792Z,2.58
2022-11-24T02:17:33.451Z,2.60
2022-11-24T02:20:05.111Z,2.59
2022-11-24T02:22:55.767Z,2.58
2022-11-24T02:25:36.248Z,2.56
2022-11-24T02:28:09.976Z,2.58
2022-11-24T02:30:38.839Z,2.58
2022-11-24T02:33:07.533Z,2.57
2022-11-24T02:35:36.251Z,2.59
2022-11-24T02:38:04.914Z,2.57
2022-11-24T02:40:34.122Z,2.58
2022-11-24T02:43:10.759Z,2.60
2022-11-24T02:45:39.454Z,2.61
2022-11-24T02:48:08.958Z,2.64
2022-11-24T02:50:37.983Z,2.65
2022-11-24T02:53:06.588Z,2.67
2022-11-24T02:55:35.242Z,2.72
2022-11-24T02:58:04.101Z,2.73
2022-11-24T03:00:34.118Z,2.74
2022-11-24T03:03:03.036Z,2.74
2022-11-24T03:05:31.639Z,2.73
2022-11-24T03:08:00.256Z,2.69
2022-11-24T03:10:29.486Z,2.66
2022-11-24T03:12:58.359Z,2.60
2022-11-24T03:15:26.928Z,2.54
2022-11-24T03:17:57.927Z,2.46
2022-11-24T03:20:27.478Z,2.34
2022-11-24T03:22:56.066Z,2.22
2022-11-24T03:25:24.810Z,2.12
2022-11-24T03:27:56.626Z,2.02
2022-11-24T03:30:25.347Z,1.92
2022-11-24T03:32:54.486Z,1.77
2022-11-24T03:35:26.021Z,1.65
2022-11-24T03:37:54.657Z,1.52
2022-11-24T03:40:23.247Z,1.43
2022-11-24T03:42:51.902Z,1.38
2022-11-24T03:45:44.965Z,1.31
2022-11-24T03:48:09.258Z,1.27
2022-11-24T03:50:39.239Z,1.19
2022-11-24T03:53:07.858Z,1.13
2022-11-24T03:55:36.854Z,1.03
2022-11-24T03:58:05.493Z,0.94
2022-11-24T04:00:34.587Z,0.86
2022-11-24T04:03:03.329Z,0.77
2022-11-24T04:05:33.226Z,0.68
2022-11-24T04:08:03.842Z,0.62
2022-11-24T04:10:33.518Z,0.62
2022-11-24T04:13:01.108Z,0.58
2022-11-24T04:15:29.795Z,0.54
2022-11-24T04:17:58.752Z,0.54
2022-11-24T04:20:27.394Z,0.53
2022-11-24T04:22:56.014Z,0.47
2022-11-24T04:25:26.109Z,0.52
2022-11-24T04:27:55.936Z,0.54
2022-11-24T04:30:26.047Z,0.45
2022-11-24T04:32:54.994Z,0.36
2022-11-24T04:35:23.764Z,0.29
2022-11-24T04:37:52.409Z,0.25
2022-11-24T04:40:21.499Z,0.18
2022-11-24T04:43:00.463Z,0.12
2022-11-24T04:45:29.162Z,0.03
2022-11-24T04:47:57.771Z,-0.05
2022-11-24T04:50:26.431Z,-0.11
2022-11-24T04:52:55.058Z,-0.15
2022-11-24T04:55:23.730Z,-0.22
2022-11-24T04:57:52.335Z,-0.27
2022-11-24T05:00:22.777Z,-0.31
2022-11-24T05:02:51.451Z,-0.35
2022-11-24T05:05:20.131Z,-0.34
2022-11-24T05:07:48.767Z,-0.32
2022-11-24T05:10:35.331Z,-0.29
2022-11-24T05:13:05.075Z,-0.22
2022-11-24T05:15:35.322Z,-0.13
2022-11-24T05:18:06.993Z,-0.06
2022-11-24T05:20:35.939Z,-0.03
2022-11-24T05:23:05.182Z,0.02
2022-11-24T05:25:33.933Z,0.09
2022-11-24T05:28:04.063Z,0.13
2022-11-24T05:30:34.447Z,0.15
2022-11-24T05:33:07.353Z,0.19
2022-11-24T05:35:37.200Z,0.23
2022-11-24T05:38:05.869Z,0.26
2022-11-24T05:40:34.451Z,0.34
2022-11-24T05:43:03.081Z,0.42
2022-11-24T05:45:31.663Z,0.48
2022-11-24T05:48:09.311Z,0.51
2022-11-24T05:50:38.242Z,0.53
2022-11-24T05:53:08.394Z,0.57
2022-11-24T05:55:37.705Z,0.60
2022-11-24T05:58:08.776Z,0.62
2022-11-24T06:00:38.632Z,0.63
2022-11-24T06:03:08.618Z,0.64
2022-11-24T06:05:37.276Z,0.69
2022-11-24T06:08:06.416Z,0.72
2022-11-24T06:10:35.293Z,0.69
2022-11-24T06:13:07.919Z,0.69
2022-11-24T06:15:38.622Z,0.70
2022-11-24T06:18:09.462Z,0.70
2022-11-24T06:20:39.050Z,0.68
2022-11-24T06:23:07.845Z,0.62
2022-11-24T06:25:37.075Z,0.57
2022-11-24T06:28:06.987Z,0.54
2022-11-24T06:30:36.028Z,0.56
2022-11-24T06:33:04.838Z,0.54
2022-11-24T06:35:34.914Z,0.56
2022-11-24T06:38:03.560Z,0.63
2022-11-24T06:40:32.146Z,0.70
2022-11-24T06:43:00.846Z,0.75
2022-11-24T06:45:29.449Z,0.78
2022-11-24T06:47:58.533Z,0.81
2022-11-24T06:50:32.194Z,0.84
2022-11-24T06:53:03.581Z,0.86
2022-11-24T06:55:32.215Z,0.88
2022-11-24T06:58:00.818Z,0.88
2022-11-24T07:00:32.069Z,0.90
2022-11-24T07:03:01.154Z,0.94
2022-11-24T07:05:29.776Z,0.97
2022-11-24T07:07:59.810Z,1.03
2022-11-24T07:10:29.784Z,1.08
2022-11-24T07:12:58.385Z,1.11
2022-11-24T07:15:26.986Z,1.12
2022-11-24T07:17:55.639Z,1.18
2022-11-24T07:20:24.250Z,1.27
2022-11-24T07:22:57.454Z,1.33
2022-11-24T07:25:26.146Z,1.43
2022-11-24T07:27:59.096Z,1.53
2022-11-24T07:30:28.587Z,1.62
2022-11-24T07:33:01.163Z,1.71
2022-11-24T07:35:30.847Z,1.78
2022-11-24T07:37:59.851Z,1.88
2022-11-24T07:40:28.524Z,1.98
2022-11-24T07:43:00.841Z,2.02
2022-11-24T07:45:29.657Z,2.13
2022-11-24T07:47:58.390Z,2.17
2022-11-24T07:50:27.141Z,2.24
2022-11-24T07:52:55.874Z,2.34
2022-11-24T07:55:24.521Z,2.32
2022-11-24T07:57:53.095Z,2.41
2022-11-24T08:00:23.383Z,2.48
2022-11-24T08:02:51.976Z,2.53
2022-11-24T08:05:20.575Z,2.57
2022-11-24T08:07:49.280Z,2.58
2022-11-24T08:10:18.607Z,2.59
2022-11-24T08:12:47.217Z,2.58
2022-11-24T08:15:15.905Z,2.55
2022-11-24T08:17:45.860Z,2.54
2022-11-24T08:20:14.424Z,2.57
2022-11-24T08:22:43.049Z,2.59
2022-11-24T08:25:14.451Z,2.58
2022-11-24T08:27:43.139Z,2.56
2022-11-24T08:30:13.039Z,2.63
2022-11-24T08:32:41.654Z,2.69
2022-11-24T08:35:15.197Z,2.76
2022-11-24T08:37:44.084Z,2.83
2022-11-24T08:40:13.912Z,2.85
2022-11-24T08:42:42.471Z,2.88
2022-11-24T08:45:20.427Z,2.52
2022-11-24T08:47:54.059Z,2.92
2022-11-24T08:50:24.747Z,2.97
2022-11-24T08:52:54.539Z,2.96
2022-11-24T08:55:23.299Z,2.94
2022-11-24T08:57:51.855Z,2.92
2022-11-24T09:00:23.207Z,2.91
2022-11-24T09:02:59.546Z,2.95
2022-11-24T09:05:51.275Z,2.99
2022-11-24T09:08:18.105Z,3.08
2022-11-24T09:10:46.764Z,3.18
2022-11-24T09:13:15.404Z,3.28
2022-11-24T09:15:43.992Z,3.45
2022-11-24T09:18:12.628Z,3.76
2022-11-24T09:20:42.557Z,4.12
2022-11-24T09:23:11.381Z,4.34
2022-11-24T09:25:39.981Z,4.54
2022-11-24T09:28:08.640Z,4.73
2022-11-24T09:30:37.445Z,4.82
2022-11-24T09:33:06.112Z,4.97
2022-11-24T09:35:37.844Z,5.22
2022-11-24T09:38:07.828Z,5.40
2022-11-24T09:40:36.536Z,5.56
2022-11-24T09:43:12.482Z,5.72
2022-11-24T09:46:08.329Z,5.78
2022-11-24T09:48:40.639Z,5.92
2022-11-24T09:51:13.462Z,5.96
2022-11-24T09:53:47.917Z,5.91
2022-11-24T09:56:21.879Z,5.96
2022-11-24T09:58:52.399Z,5.98
2022-11-24T10:01:24.036Z,6.01
2022-11-24T10:03:54.539Z,6.01
2022-11-24T10:06:28.128Z,5.99
2022-11-24T10:09:12.614Z,5.96
2022-11-24T10:11:47.237Z,5.95
2022-11-24T10:14:45.199Z,5.82
2022-11-24T10:17:32.762Z,5.78
2022-11-24T10:20:10.026Z,5.90
2022-11-24T10:22:52.362Z,6.08
2022-11-24T10:25:26.642Z,6.26
2022-11-24T10:28:00.954Z,6.29
2022-11-24T10:30:30.690Z,6.35
2022-11-24T10:33:05.007Z,6.41
2022-11-24T10:35:45.471Z,6.48
2022-11-24T10:38:28.059Z,6.48
2022-11-24T10:41:01.020Z,6.50
2022-11-24T10:43:30.554Z,6.59
2022-11-24T10:46:09.915Z,6.56
2022-11-24T10:48:44.380Z,6.50
2022-11-24T10:51:34.674Z,6.58
2022-11-24T10:54:10.662Z,6.70
2022-11-24T10:56:44.872Z,6.73
2022-11-24T10:59:36.585Z,6.77
2022-11-24T11:02:20.903Z,6.88
2022-11-24T11:04:49.559Z,7.00
2022-11-24T11:07:21.523Z,7.01
2022-11-24T11:09:50.811Z,6.95
2022-11-24T11:12:43.264Z,6.97
2022-11-24T11:15:29.771Z,7.06
2022-11-24T11:18:01.290Z,7.07
2022-11-24T11:20:33.480Z,6.83
2022-11-24T11:23:06.024Z,7.13
2022-11-24T11:25:38.162Z,7.20
2022-11-24T11:28:24.165Z,7.28
2022-11-24T11:31:20.084Z,7.32
2022-11-24T11:34:02.770Z,7.30
2022-11-24T11:36:34.046Z,7.30
2022-11-24T11:39:03.712Z,7.36
2022-11-24T11:41:37.043Z,7.32
2022-11-24T11:44:31.508Z,7.39
2022-11-24T11:47:03.827Z,7.45
2022-11-24T11:49:32.704Z,7.50
2022-11-24T11:52:19.420Z,7.54
2022-11-24T11:55:09.194Z,7.54
2022-11-24T11:57:47.840Z,7.57
2022-11-24T12:00:20.326Z,7.58
2022-11-24T12:03:31.132Z,7.47
2022-11-24T12:06:15.962Z,7.42
2022-11-24T12:09:19.291Z,7.36
2022-11-24T12:11:54.338Z,7.22
2022-11-24T12:14:35.932Z,7.11
2022-11-24T12:17:22.017Z,7.07
2022-11-24T12:20:14.567Z,6.75
2022-11-24T12:22:53.462Z,6.91
2022-11-24T12:25:28.517Z,6.88
2022-11-24T12:28:23.589Z,6.87
2022-11-24T12:31:05.403Z,6.89
2022-11-24T12:34:01.937Z,6.79
2022-11-24T12:37:08.698Z,6.90
2022-11-24T12:39:49.819Z,6.80
2022-11-24T12:42:37.578Z,7.08
2022-11-24T12:45:18.664Z,7.12
2022-11-24T12:48:14.907Z,7.02
2022-11-24T12:50:46.841Z,7.02
2022-11-24T12:53:18.787Z,7.02
2022-11-24T12:55:48.074Z,7.21
2022-11-24T12:58:26.413Z,7.32
2022-11-24T13:01:05.745Z,6.96
2022-11-24T13:03:46.577Z,6.95
2022-11-24T13:06:22.100Z,6.45
2022-11-24T13:08:51.112Z,6.81
2022-11-24T13:11:50.427Z,6.90
2022-11-24T13:14:23.946Z,7.05
2022-11-24T13:19:44.481Z,7.44
2022-11-24T13:22:24.162Z,7.60
2022-11-24T13:25:14.759Z,7.73
2022-11-24T13:27:46.212Z,7.81
2022-11-24T13:30:57.080Z,7.75
2022-11-24T13:33:32.943Z,7.75
2022-11-24T13:36:34.006Z,7.73
2022-11-24T13:39:05.258Z,7.64
2022-11-24T13:42:01.726Z,7.57
2022-11-24T13:44:43.783Z,7.51
2022-11-24T13:47:31.444Z,7.43
2022-11-24T13:50:00.622Z,7.40
2022-11-24T13:52:46.331Z,7.34
2022-11-24T13:55:27.976Z,7.26
2022-11-24T13:58:00.444Z,7.17
2022-11-24T14:00:32.337Z,7.10
2022-11-24T14:03:04.757Z,7.04
2022-11-24T14:05:39.142Z,6.93
2022-11-24T14:08:15.750Z,6.90
2022-11-24T14:10:45.794Z,6.91
2022-11-24T14:13:29.035Z,6.98
2022-11-24T14:16:03.035Z,6.98
2022-11-24T14:18:32.519Z,6.99
2022-11-24T14:21:15.956Z,6.98
2022-11-24T14:23:46.651Z,6.98
2022-11-24T14:26:22.294Z,6.63
2022-11-24T14:28:52.038Z,7.02
2022-11-24T14:31:24.196Z,7.04
2022-11-24T14:34:13.401Z,7.07
2022-11-24T14:36:42.388Z,7.04
2022-11-24T14:39:14.705Z,7.04
2022-11-24T14:41:51.786Z,7.05
2022-11-24T14:44:24.078Z,7.02
2022-11-24T14:47:02.529Z,6.92
2022-11-24T14:49:32.534Z,6.86
2022-11-24T14:52:04.510Z,6.82
2022-11-24T14:54:33.619Z,6.78
2022-11-24T14:57:05.875Z,6.78
2022-11-24T14:59:38.232Z,6.79
2022-11-24T15:02:52.107Z,6.76
2022-11-24T15:05:24.023Z,6.73
2022-11-24T15:08:02.455Z,6.69
2022-11-24T15:10:38.550Z,6.67
2022-11-24T15:13:17.305Z,6.68
2022-11-24T15:15:54.417Z,6.67
2022-11-24T15:18:30.192Z,6.65
2022-11-24T15:21:00.402Z,6.63
2022-11-24T15:23:31.198Z,6.66
2022-11-24T15:26:28.865Z,6.67
2022-11-24T15:28:59.979Z,6.66
2022-11-24T15:31:28.570Z,6.63
2022-11-24T15:33:57.220Z,6.57
2022-11-24T15:36:26.923Z,6.51
2022-11-24T15:38:55.686Z,6.45
2022-11-24T15:41:30.469Z,6.43
2022-11-24T15:44:00.179Z,6.40
2022-11-24T15:46:29.922Z,6.34
2022-11-24T15:48:58.598Z,6.31
2022-11-24T15:51:31.485Z,6.27
2022-11-24T15:54:01.381Z,6.22
2022-11-24T15:56:34.776Z,6.19
2022-11-24T15:59:04.269Z,6.19
2022-11-24T16:01:34.952Z,6.18
2022-11-24T16:04:04.217Z,6.14
2022-11-24T16:06:34.560Z,6.13
2022-11-24T16:09:03.379Z,6.15
2022-11-24T16:11:32.122Z,6.17
2022-11-24T16:14:00.873Z,6.18
2022-11-24T16:16:29.743Z,6.17
2022-11-24T16:18:58.484Z,6.14
2022-11-24T16:21:27.098Z,6.13
2022-11-24T16:23:57.358Z,6.12
2022-11-24T16:26:26.023Z,6.12
2022-11-24T16:28:54.795Z,6.11
2022-11-24T16:31:23.763Z,6.12
2022-11-24T16:33:52.456Z,6.16
2022-11-24T16:36:21.215Z,6.12
2022-11-24T16:38:49.886Z,6.10
2022-11-24T16:41:21.709Z,6.11
2022-11-24T16:43:50.493Z,6.09
2022-11-24T16:46:21.391Z,6.07
2022-11-24T16:48:51.493Z,5.71
2022-11-24T16:51:21.841Z,6.09
2022-11-24T16:53:57.529Z,6.11
2022-11-24T16:56:28.011Z,6.13
2022-11-24T16:58:57.439Z,6.11
2022-11-24T17:01:26.852Z,6.11
2022-11-24T17:03:55.533Z,6.12
2022-11-24T17:06:24.584Z,5.78
2022-11-24T17:08:54.149Z,6.03
2022-11-24T17:11:24.258Z,6.06
2022-11-24T17:13:54.981Z,6.10
2022-11-24T17:16:25.326Z,6.10
2022-11-24T17:18:54.770Z,6.09
2022-11-24T17:21:25.644Z,6.07
2022-11-24T17:23:56.126Z,6.06
2022-11-24T17:26:25.312Z,6.06
2022-11-24T17:28:55.926Z,6.06
2022-11-24T17:31:26.269Z,6.07
2022-11-24T17:33:56.193Z,6.07
2022-11-24T17:36:25.083Z,6.07
2022-11-24T17:38:53.653Z,6.09
2022-11-24T17:41:23.416Z,6.06
2022-11-24T17:43:55.581Z,6.06
2022-11-24T17:46:24.979Z,6.05
2022-11-24T17:48:54.144Z,6.05
2022-11-24T17:51:24.578Z,6.04
2022-11-24T17:53:54.637Z,6.04
2022-11-24T17:56:24.753Z,6.05
2022-11-24T17:58:56.452Z,6.07
2022-11-24T18:01:26.680Z,6.12
2022-11-24T18:03:55.464Z,6.14
2022-11-24T18:06:25.531Z,6.14
2022-11-24T18:08:55.073Z,6.14
2022-11-24T18:11:30.430Z,6.13
2022-11-24T18:14:03.967Z,6.13
2022-11-24T18:16:34.107Z,6.15
2022-11-24T18:19:09.786Z,6.18
2022-11-24T18:21:40.075Z,6.17
2022-11-24T18:24:09.579Z,6.14
2022-11-24T18:26:38.202Z,6.13
2022-11-24T18:29:08.421Z,6.15
2022-11-24T18:31:37.392Z,6.17
2022-11-24T18:34:07.176Z,6.16
2022-11-24T18:36:36.532Z,6.16
2022-11-24T18:39:06.698Z,6.13
2022-11-24T18:41:35.734Z,6.12
2022-11-24T18:44:08.033Z,6.09
2022-11-24T18:46:38.422Z,6.07
2022-11-24T18:49:07.627Z,6.05
2022-11-24T18:51:36.272Z,6.01
2022-11-24T18:54:05.607Z,5.97
2022-11-24T18:56:34.439Z,5.97
2022-11-24T18:59:03.270Z,5.97
2022-11-24T19:01:32.488Z,6.01
2022-11-24T19:04:03.492Z,6.00
2022-11-24T19:06:34.119Z,6.01
2022-11-24T19:09:05.152Z,6.05
2022-11-24T19:11:36.322Z,6.07
2022-11-24T19:14:06.700Z,6.07
2022-11-24T19:16:35.735Z,6.07
2022-11-24T19:19:06.402Z,6.09
2022-11-24T19:21:38.230Z,6.10
2022-11-24T19:24:10.131Z,6.12
2022-11-24T19:26:39.506Z,6.13
2022-11-24T19:29:09.000Z,6.12
2022-11-24T19:31:39.481Z,6.11
2022-11-24T19:34:12.761Z,6.12
2022-11-24T19:36:43.332Z,6.09
2022-11-24T19:39:16.255Z,6.03
2022-11-24T19:41:47.702Z,5.98
2022-11-24T19:44:16.832Z,5.95
2022-11-24T19:46:45.519Z,5.93
2022-11-24T19:49:15.773Z,5.87
2022-11-24T19:51:44.493Z,5.86
2022-11-24T19:54:14.058Z,5.89
2022-11-24T19:56:43.064Z,5.88
2022-11-24T19:59:14.072Z,5.88
2022-11-24T20:01:43.602Z,5.88
2022-11-24T20:04:16.477Z,5.91
2022-11-24T20:06:46.891Z,5.93
2022-11-24T20:09:17.479Z,5.96
2022-11-24T20:11:46.821Z,5.98
2022-11-24T20:14:18.303Z,5.98
2022-11-24T20:16:47.884Z,5.97
2022-11-24T20:19:19.133Z,5.98
2022-11-24T20:21:50.021Z,5.99
2022-11-24T20:24:21.555Z,5.98
2022-11-24T20:26:52.490Z,5.97
2022-11-24T20:29:21.485Z,5.96
2022-11-24T20:31:51.831Z,6.00
2022-11-24T20:34:23.203Z,6.03
2022-11-24T20:36:52.825Z,6.05
2022-11-24T20:39:28.713Z,6.09
2022-11-24T20:41:58.099Z,6.12
2022-11-24T20:44:28.124Z,6.13
2022-11-24T20:46:59.713Z,6.15
2022-11-24T20:49:29.932Z,6.19
2022-11-24T20:51:58.620Z,6.23
2022-11-24T20:54:28.095Z,6.25
2022-11-24T20:56:56.833Z,6.28
2022-11-24T20:59:26.723Z,6.29
2022-11-24T21:01:57.160Z,6.29
2022-11-24T21:04:28.677Z,6.27
2022-11-24T21:06:57.857Z,6.23
2022-11-24T21:09:27.600Z,6.20
2022-11-24T21:11:56.354Z,6.18
2022-11-24T21:14:25.558Z,6.14
2022-11-24T21:16:54.283Z,6.09
2022-11-24T21:19:22.955Z,6.02
2022-11-24T21:21:52.995Z,5.96
2022-11-24T21:24:22.538Z,5.88
2022-11-24T21:26:52.801Z,5.79
2022-11-24T21:29:23.593Z,5.74
2022-11-24T21:31:52.686Z,5.74
2022-11-24T21:34:21.400Z,5.72
2022-11-24T21:36:50.302Z,5.72
2022-11-24T21:39:20.983Z,5.77
2022-11-24T21:41:49.697Z,5.81
2022-11-24T21:44:18.309Z,5.85
2022-11-24T21:46:52.595Z,5.85
2022-11-24T21:49:24.365Z,5.86
2022-11-24T21:51:55.708Z,5.85
2022-11-24T21:54:26.182Z,5.91
2022-11-24T21:56:55.540Z,5.93
2022-11-24T21:59:24.125Z,5.97
2022-11-24T22:01:52.797Z,5.98
2022-11-24T22:04:21.604Z,6.02
2022-11-24T22:06:50.184Z,6.05
2022-11-24T22:09:18.855Z,6.09
2022-11-24T22:11:49.660Z,6.11
2022-11-24T22:14:18.296Z,6.13
2022-11-24T22:16:47.266Z,6.13
2022-11-24T22:19:15.959Z,6.17
2022-11-24T22:21:44.607Z,6.17
2022-11-24T22:24:13.432Z,6.15
2022-11-24T22:26:42.156Z,6.17
2022-11-24T22:29:12.303Z,6.20
2022-11-24T22:31:41.062Z,6.21
2022-11-24T22:34:09.774Z,6.23
2022-11-24T22:36:38.425Z,6.24
2022-11-24T22:39:07.753Z,6.25
2022-11-24T22:41:37.104Z,6.25
2022-11-24T22:44:06.100Z,6.27
2022-11-24T22:46:36.119Z,6.28
2022-11-24T22:49:05.107Z,6.28
2022-11-24T22:51:35.440Z,6.30
2022-11-24T22:54:05.750Z,6.03
2022-11-24T22:56:34.937Z,6.27
2022-11-24T22:59:05.093Z,6.29
2022-11-24T23:01:35.894Z,5.49
2022-11-24T23:04:04.971Z,6.26
2022-11-24T23:06:34.498Z,6.24
2022-11-24T23:09:05.183Z,6.25
2022-11-24T23:11:38.278Z,6.26
2022-11-24T23:14:09.050Z,6.27
2022-11-24T23:16:39.188Z,6.26
2022-11-24T23:19:08.697Z,6.28
2022-11-24T23:21:39.285Z,6.26
2022-11-24T23:24:09.217Z,6.27
2022-11-24T23:26:39.325Z,6.27
2022-11-24T23:29:10.572Z,6.26
2022-11-24T23:31:40.885Z,6.29
2022-11-24T23:34:09.903Z,6.33
2022-11-24T23:36:38.690Z,6.39
2022-11-24T23:39:09.549Z,6.42
2022-11-24T23:41:38.375Z,6.46
2022-11-24T23:44:07.458Z,6.47
2022-11-24T23:46:36.482Z,6.48
2022-11-24T23:49:06.560Z,6.50
2022-11-24T23:51:35.615Z,6.53
2022-11-24T23:54:08.658Z,6.54
2022-11-24T23:56:37.882Z,6.52
2022-11-24T23:59:06.984Z,6.52
